Time;durP1;ratioP1;P1;durP2;ratioP2;P2;SDS_P1;SDS_P2;PMS_P1;PMS_P2;Temp;Humidity;BMP_temperature;BMP_pressure;BME280_temperature;BME280_humidity;BME280_pressure;Samples;Min_cycle;Max_cycle;Signal;HPM_P1;HPM_P2
2024/01/10 00:00:14;;;;;;;20.90;13.50;;;-4.10;99.90;;;;;;5013045;28;20045;-78
2024/01/10 00:02:40;;;;;;;21.13;13.15;;;-4.10;99.90;;;;;;5027787;28;20052;-77
2024/01/10 00:05:06;;;;;;;20.60;11.85;;;-4.10;99.90;;;;;;5029248;28;20057;-77
2024/01/10 00:07:32;;;;;;;18.25;12.25;;;-4.10;99.90;;;;;;5011448;28;20048;-79
2024/01/10 00:09:59;;;;;;;20.52;12.93;;;-4.10;99.90;;;;;;5029807;28;20759;-80
2024/01/10 00:12:25;;;;;;;19.63;12.77;;;-4.20;99.90;;;;;;5000775;28;20069;-80
2024/01/10 00:14:51;;;;;;;21.60;13.30;;;-4.10;99.90;;;;;;5028958;28;20494;-79
2024/01/10 00:17:16;;;;;;;21.75;13.68;;;-4.20;99.90;;;;;;5028312;28;20040;-79
2024/01/10 00:19:42;;;;;;;18.83;12.00;;;-4.20;99.90;;;;;;5028934;28;20037;-77
2024/01/10 00:22:07;;;;;;;19.05;11.85;;;-4.20;99.90;;;;;;5029331;28;20793;-77
2024/01/10 00:24:33;;;;;;;22.00;13.77;;;-4.20;99.90;;;;;;5011419;28;20044;-78
2024/01/10 00:26:59;;;;;;;19.27;12.27;;;-4.30;99.90;;;;;;5029466;28;20126;-77
2024/01/10 00:29:24;;;;;;;20.92;12.52;;;-4.20;99.90;;;;;;5027893;28;20041;-77
2024/01/10 00:31:52;;;;;;;19.52;13.35;;;-4.30;99.90;;;;;;5028736;28;20045;-78
2024/01/10 00:34:18;;;;;;;20.02;12.38;;;-4.30;99.90;;;;;;5028794;28;20063;-77
2024/01/10 00:36:43;;;;;;;21.83;13.15;;;-4.30;99.90;;;;;;5030514;28;20037;-77
2024/01/10 00:39:09;;;;;;;21.35;12.38;;;-4.20;99.90;;;;;;5028420;28;20124;-77
2024/01/10 00:41:34;;;;;;;20.40;12.80;;;-4.40;99.90;;;;;;5030135;28;20077;-78
2024/01/10 00:44:00;;;;;;;20.88;12.35;;;-4.30;99.90;;;;;;5029005;28;20045;-77
2024/01/10 00:46:25;;;;;;;22.35;12.90;;;-4.30;99.90;;;;;;5028235;28;20045;-77
2024/01/10 00:48:51;;;;;;;18.77;12.30;;;-4.30;99.90;;;;;;5010555;28;20042;-77
2024/01/10 00:51:16;;;;;;;18.60;12.50;;;-4.30;99.90;;;;;;5028715;28;20053;-77
2024/01/10 00:53:42;;;;;;;19.58;12.38;;;-4.40;99.90;;;;;;5029308;28;20048;-77
2024/01/10 00:56:08;;;;;;;19.80;12.50;;;-4.40;99.90;;;;;;5029240;28;20057;-77
2024/01/10 00:58:33;;;;;;;21.02;13.73;;;-4.30;99.90;;;;;;5029350;28;20037;-78
2024/01/10 01:00:59;;;;;;;20.48;11.98;;;-4.40;99.90;;;;;;5028497;28;20045;-78
2024/01/10 01:03:24;;;;;;;22.85;12.73;;;-4.40;99.90;;;;;;5008322;28;20045;-77
2024/01/10 01:05:50;;;;;;;21.20;12.30;;;-4.40;99.90;;;;;;5010260;28;20053;-77
2024/01/10 01:08:15;;;;;;;18.70;11.88;;;-4.40;99.90;;;;;;5020136;28;20045;-77
2024/01/10 01:10:41;;;;;;;18.27;11.68;;;-4.30;99.90;;;;;;5019959;28;20045;-77
2024/01/10 01:13:07;;;;;;;17.77;12.15;;;-4.40;99.90;;;;;;5028338;28;20049;-77
2024/01/10 01:15:32;;;;;;;19.35;11.95;;;-4.50;99.90;;;;;;5028510;28;20049;-78
2024/01/10 01:17:59;;;;;;;18.80;12.40;;;-4.40;99.90;;;;;;5000320;28;20049;-77
2024/01/10 01:20:24;;;;;;;20.08;12.82;;;-4.50;99.90;;;;;;4994460;28;20076;-77
2024/01/10 01:22:50;;;;;;;20.25;12.75;;;-4.50;99.90;;;;;;5028315;28;20046;-77
2024/01/10 01:25:15;;;;;;;19.83;13.05;;;-4.40;99.90;;;;;;5010782;28;20057;-77
2024/01/10 01:27:41;;;;;;;19.42;12.18;;;-4.60;99.90;;;;;;5028389;28;20049;-77
2024/01/10 01:30:07;;;;;;;21.88;12.20;;;-4.60;99.90;;;;;;5028790;28;20446;-77
2024/01/10 01:32:33;;;;;;;21.90;13.82;;;-4.60;99.90;;;;;;5027461;28;20041;-77
2024/01/10 01:34:58;;;;;;;20.52;13.43;;;-4.60;99.90;;;;;;5028478;28;20510;-77
2024/01/10 01:37:24;;;;;;;19.25;11.57;;;-4.60;99.90;;;;;;5027269;28;20662;-77
2024/01/10 01:39:49;;;;;;;18.77;11.90;;;-4.70;99.90;;;;;;5028551;28;20419;-77
2024/01/10 01:42:15;;;;;;;17.52;11.02;;;-4.60;99.90;;;;;;5028504;28;20057;-77
2024/01/10 01:44:41;;;;;;;19.42;12.48;;;-4.70;99.90;;;;;;5027115;28;20041;-77
2024/01/10 01:47:06;;;;;;;19.95;11.65;;;-4.70;99.90;;;;;;5025080;28;20041;-77
2024/01/10 01:49:32;;;;;;;18.15;12.13;;;-4.70;99.90;;;;;;5027116;28;20057;-77
2024/01/10 01:51:59;;;;;;;20.13;11.73;;;-4.70;99.90;;;;;;5027072;28;20113;-77
2024/01/10 01:54:25;;;;;;;18.67;12.00;;;-4.70;99.90;;;;;;5026559;28;20045;-77
2024/01/10 01:56:51;;;;;;;18.70;12.02;;;-4.70;99.90;;;;;;5028106;28;20048;-77
2024/01/10 01:59:17;;;;;;;19.42;12.38;;;-4.80;99.90;;;;;;5010768;28;20057;-77
2024/01/10 02:01:43;;;;;;;20.48;11.45;;;-4.80;99.90;;;;;;5009879;28;20069;-77
2024/01/10 02:04:09;;;;;;;15.93;10.73;;;-4.80;99.90;;;;;;5027127;28;20132;-77
2024/01/10 02:06:34;;;;;;;17.77;11.88;;;-4.80;99.90;;;;;;5028077;28;20080;-77
2024/01/10 02:09:00;;;;;;;21.63;12.70;;;-4.80;99.90;;;;;;5009464;28;20068;-77
2024/01/10 02:11:26;;;;;;;19.95;12.02;;;-4.80;99.90;;;;;;5027925;28;20045;-77
2024/01/10 02:13:54;;;;;;;17.98;11.27;;;-4.80;99.90;;;;;;5027565;28;20513;-77
2024/01/10 02:16:20;;;;;;;18.80;12.30;;;-4.90;99.90;;;;;;5026863;28;20088;-77
2024/01/10 02:18:46;;;;;;;21.92;11.73;;;-4.80;99.90;;;;;;5019053;28;20058;-77
2024/01/10 02:21:12;;;;;;;18.08;11.52;;;-4.90;99.90;;;;;;4992481;28;20060;-77
2024/01/10 02:23:37;;;;;;;20.05;12.13;;;-4.90;99.90;;;;;;5027246;28;20894;-77
2024/01/10 02:26:03;;;;;;;18.63;11.15;;;-5.00;99.90;;;;;;5009385;28;20068;-77
2024/01/10 02:28:28;;;;;;;19.02;11.13;;;-4.90;99.90;;;;;;5027559;28;20047;-77
2024/01/10 02:30:55;;;;;;;16.70;11.05;;;-5.00;99.90;;;;;;5027064;28;20128;-77
2024/01/10 02:33:20;;;;;;;18.50;10.85;;;-4.80;99.90;;;;;;5026622;28;20053;-77
2024/01/10 02:35:46;;;;;;;17.45;11.50;;;-5.00;99.90;;;;;;5027368;28;20403;-77
2024/01/10 02:38:12;;;;;;;19.20;11.20;;;-4.90;99.90;;;;;;5026281;28;20398;-78
2024/01/10 02:40:37;;;;;;;18.63;11.48;;;-4.90;99.90;;;;;;5027739;28;20131;-77
2024/01/10 02:43:03;;;;;;;18.67;11.57;;;-4.90;99.90;;;;;;5027072;28;20048;-77
2024/01/10 02:45:28;;;;;;;17.25;10.40;;;-4.90;99.90;;;;;;5026138;28;20044;-77
2024/01/10 02:47:54;;;;;;;17.45;10.98;;;-4.90;99.90;;;;;;5009433;28;20077;-77
2024/01/10 02:50:19;;;;;;;19.00;10.75;;;-4.90;99.90;;;;;;5005941;28;20108;-77
2024/01/10 02:52:45;;;;;;;16.35;10.25;;;-4.80;99.90;;;;;;5022493;28;20060;-77
2024/01/10 02:55:11;;;;;;;17.25;11.20;;;-4.80;99.90;;;;;;5026373;28;20038;-77
2024/01/10 02:57:36;;;;;;;18.42;10.65;;;-4.80;99.90;;;;;;5026839;28;20551;-77
2024/01/10 03:00:04;;;;;;;18.10;10.02;;;-4.90;99.90;;;;;;5009526;28;20037;-77
2024/01/10 03:02:30;;;;;;;17.23;10.40;;;-4.90;99.90;;;;;;5023194;28;20103;-77
2024/01/10 03:04:55;;;;;;;18.80;11.13;;;-4.90;99.90;;;;;;5008202;28;20442;-77
2024/01/10 03:07:21;;;;;;;16.95;10.07;;;-4.90;99.90;;;;;;5017945;28;20435;-77
2024/01/10 03:09:46;;;;;;;20.88;11.23;;;-4.90;99.90;;;;;;5027703;28;20060;-77
2024/01/10 03:12:12;;;;;;;18.08;10.57;;;-4.90;99.90;;;;;;5007891;28;20045;-77
2024/01/10 03:14:38;;;;;;;17.55;11.00;;;-4.90;99.90;;;;;;5027119;28;20095;-77
2024/01/10 03:17:03;;;;;;;17.88;10.32;;;-4.90;99.90;;;;;;5025675;28;20096;-77
2024/01/10 03:19:29;;;;;;;18.75;11.93;;;-4.90;99.90;;;;;;5022772;28;20038;-77
2024/01/10 03:21:54;;;;;;;16.40;10.50;;;-4.80;99.90;;;;;;5015467;28;20057;-77
2024/01/10 03:24:20;;;;;;;17.73;11.25;;;-4.80;99.90;;;;;;5026341;28;20049;-77
2024/01/10 03:26:45;;;;;;;17.83;10.95;;;-4.90;99.90;;;;;;5008761;28;20111;-77
2024/01/10 03:29:11;;;;;;;20.40;11.43;;;-4.90;99.90;;;;;;5027197;28;20106;-77
2024/01/10 03:31:37;;;;;;;19.80;12.15;;;-4.90;99.90;;;;;;5030480;28;20052;-77
2024/01/10 03:34:03;;;;;;;17.52;11.43;;;-4.90;99.90;;;;;;5030800;28;20042;-77
2024/01/10 03:36:29;;;;;;;20.55;11.48;;;-4.90;99.90;;;;;;5012167;28;20183;-77
2024/01/10 03:38:54;;;;;;;21.40;12.73;;;-4.90;99.90;;;;;;5011766;28;20148;-77
2024/01/10 03:41:20;;;;;;;18.92;11.45;;;-4.90;99.90;;;;;;5012420;28;20084;-77
2024/01/10 03:43:46;;;;;;;21.23;13.18;;;-4.90;99.90;;;;;;5030713;28;20033;-77
2024/01/10 03:46:13;;;;;;;17.70;11.93;;;-4.90;99.90;;;;;;5013042;28;20048;-78
2024/01/10 03:48:47;;;;;;;22.65;12.98;;;-4.90;99.90;;;;;;5028960;28;20046;-78
2024/01/10 03:51:17;;;;;;;19.02;11.40;;;-4.90;99.90;;;;;;5030032;28;20045;-78
2024/01/10 03:53:43;;;;;;;18.95;12.30;;;-4.90;99.90;;;;;;5011495;28;20045;-79
2024/01/10 03:56:10;;;;;;;22.63;13.82;;;-4.90;99.90;;;;;;4995826;28;20054;-78
2024/01/10 03:58:35;;;;;;;19.75;12.70;;;-4.90;99.90;;;;;;5029406;28;20042;-78
2024/01/10 04:01:08;;;;;;;18.88;11.75;;;-4.90;99.90;;;;;;5011329;28;20064;-78
2024/01/10 04:03:34;;;;;;;20.30;12.52;;;-4.90;99.90;;;;;;5029176;28;20081;-78
2024/01/10 04:06:00;;;;;;;23.67;12.70;;;-4.90;99.90;;;;;;4996497;28;20041;-78
2024/01/10 04:08:26;;;;;;;18.48;11.48;;;-4.90;99.90;;;;;;4984784;28;20053;-77
2024/01/10 04:10:51;;;;;;;20.15;12.50;;;-4.90;99.90;;;;;;5021253;28;20041;-77
2024/01/10 04:13:17;;;;;;;20.73;12.90;;;-4.90;99.90;;;;;;5012170;28;20049;-78
2024/01/10 04:15:43;;;;;;;24.38;14.07;;;-4.90;99.90;;;;;;5028357;28;20076;-77
2024/01/10 04:18:08;;;;;;;21.75;13.35;;;-5.00;99.90;;;;;;5029076;28;20060;-78
2024/01/10 04:20:34;;;;;;;20.83;13.05;;;-4.90;99.90;;;;;;5008039;28;20049;-78
2024/01/10 04:22:59;;;;;;;23.77;13.45;;;-4.60;99.90;;;;;;5027614;28;20131;-77
2024/01/10 04:25:25;;;;;;;21.17;12.88;;;-5.00;99.90;;;;;;5028969;28;20498;-77
2024/01/10 04:27:51;;;;;;;21.80;13.48;;;-5.00;99.90;;;;;;4994770;28;20499;-77
2024/01/10 04:30:16;;;;;;;25.20;14.80;;;-5.00;99.90;;;;;;5011813;28;20061;-77
2024/01/10 04:32:42;;;;;;;23.60;13.68;;;-5.10;99.90;;;;;;5011696;28;20400;-77
2024/01/10 04:35:07;;;;;;;23.73;13.00;;;-5.10;99.90;;;;;;5028846;28;20037;-77
2024/01/10 04:37:33;;;;;;;23.20;14.30;;;-5.00;99.90;;;;;;5011094;28;20048;-77
2024/01/10 04:39:59;;;;;;;23.63;13.23;;;-5.10;99.90;;;;;;5011801;28;20144;-77
2024/01/10 04:42:24;;;;;;;22.95;14.18;;;-5.10;99.90;;;;;;5028686;28;20422;-77
2024/01/10 04:44:50;;;;;;;22.13;13.05;;;-5.10;99.90;;;;;;4989745;28;20125;-77
2024/01/10 04:47:16;;;;;;;26.20;15.07;;;-5.10;99.90;;;;;;5024435;28;20127;-77
2024/01/10 04:49:42;;;;;;;25.10;14.02;;;-5.20;99.90;;;;;;5011263;28;20046;-77
2024/01/10 04:52:07;;;;;;;24.25;13.68;;;-5.10;99.90;;;;;;5024995;28;20643;-77
2024/01/10 04:54:33;;;;;;;23.08;15.00;;;-5.10;99.90;;;;;;5029232;28;20041;-77
2024/01/10 04:56:59;;;;;;;19.42;13.45;;;-5.10;99.90;;;;;;5011200;28;20740;-77
2024/01/10 04:59:25;;;;;;;22.48;13.88;;;-5.10;99.90;;;;;;4995874;28;20053;-77
2024/01/10 05:01:50;;;;;;;23.42;14.35;;;-5.20;99.90;;;;;;4994018;28;20463;-77
2024/01/10 05:04:16;;;;;;;22.63;14.52;;;-5.20;99.90;;;;;;5029861;28;20830;-77
2024/01/10 05:06:41;;;;;;;22.80;14.15;;;-5.20;99.90;;;;;;5028377;28;20037;-77
2024/01/10 05:09:07;;;;;;;21.63;14.15;;;-5.20;99.90;;;;;;5010815;28;20183;-77
2024/01/10 05:11:35;;;;;;;23.60;15.07;;;-5.20;99.90;;;;;;4994647;28;20053;-77
2024/01/10 05:14:01;;;;;;;23.00;14.10;;;-5.30;99.90;;;;;;5028330;28;20045;-77
2024/01/10 05:16:26;;;;;;;26.30;15.57;;;-5.20;99.90;;;;;;5029150;28;20034;-77
2024/01/10 05:18:52;;;;;;;24.92;15.77;;;-5.20;99.90;;;;;;5027315;28;20500;-77
2024/01/10 05:21:18;;;;;;;24.17;14.38;;;-5.30;99.90;;;;;;5027500;28;20515;-77
2024/01/10 05:23:43;;;;;;;23.80;15.00;;;-5.30;99.90;;;;;;5026638;28;20065;-77
2024/01/10 05:26:09;;;;;;;24.40;14.23;;;-5.30;99.90;;;;;;5011164;28;20037;-77
2024/01/10 05:28:35;;;;;;;26.45;15.38;;;-5.30;99.90;;;;;;5026978;28;20038;-77
2024/01/10 05:31:01;;;;;;;25.38;15.48;;;-5.20;99.90;;;;;;5028993;28;20042;-77
2024/01/10 05:33:29;;;;;;;25.10;14.93;;;-5.30;99.90;;;;;;5018482;28;20510;-77
2024/01/10 05:35:54;;;;;;;23.70;15.00;;;-5.30;99.90;;;;;;5028930;28;20144;-77
2024/01/10 05:38:20;;;;;;;27.75;16.00;;;-5.30;99.90;;;;;;5026418;28;20053;-77
2024/01/10 05:40:45;;;;;;;28.05;16.60;;;-5.30;99.90;;;;;;5028411;28;20049;-77
2024/01/10 05:43:11;;;;;;;26.70;15.75;;;-5.30;99.90;;;;;;5028437;28;20094;-77
2024/01/10 05:45:37;;;;;;;29.00;16.45;;;-5.30;99.90;;;;;;5029208;28;20135;-77
2024/01/10 05:48:03;;;;;;;26.48;15.40;;;-5.30;99.90;;;;;;4999232;28;20095;-77
2024/01/10 05:50:28;;;;;;;25.98;15.68;;;-5.30;99.90;;;;;;5027972;28;20045;-77
2024/01/10 05:52:54;;;;;;;26.73;15.68;;;-5.30;99.90;;;;;;5026012;28;20052;-77
2024/01/10 05:55:19;;;;;;;27.23;16.10;;;-5.20;99.90;;;;;;5027750;28;20045;-77
2024/01/10 05:57:45;;;;;;;26.52;15.43;;;-5.20;99.90;;;;;;5010094;28;20037;-77
2024/01/10 06:00:12;;;;;;;30.98;16.70;;;-5.30;99.90;;;;;;4994288;28;20069;-77
2024/01/10 06:02:41;;;;;;;25.73;15.95;;;-5.30;99.90;;;;;;5009612;28;20057;-77
2024/01/10 06:05:11;;;;;;;27.48;16.45;;;-5.20;99.90;;;;;;5025980;28;20042;-77
2024/01/10 06:07:41;;;;;;;29.70;15.82;;;-5.30;99.90;;;;;;5026772;28;20734;-78
2024/01/10 06:10:07;;;;;;;25.08;15.50;;;-5.20;99.90;;;;;;5027625;28;20558;-78
2024/01/10 06:12:33;;;;;;;27.25;16.33;;;-5.30;99.90;;;;;;5010133;28;20037;-78
2024/01/10 06:14:58;;;;;;;28.58;17.55;;;-5.30;99.90;;;;;;5027684;28;20091;-78
2024/01/10 06:17:24;;;;;;;26.00;16.13;;;-5.20;99.90;;;;;;5009917;28;20455;-78
2024/01/10 06:19:50;;;;;;;29.00;17.35;;;-5.30;99.90;;;;;;5025197;28;20057;-78
2024/01/10 06:22:16;;;;;;;29.05;16.38;;;-5.30;99.90;;;;;;5008281;28;20048;-78
2024/01/10 06:24:43;;;;;;;27.08;16.15;;;-5.30;99.90;;;;;;5010117;28;20053;-78
2024/01/10 06:27:09;;;;;;;27.17;16.77;;;-5.30;99.90;;;;;;5009942;28;20060;-77
2024/01/10 06:29:35;;;;;;;27.73;15.93;;;-5.20;99.90;;;;;;5009553;28;20049;-78
2024/01/10 06:32:01;;;;;;;29.13;16.63;;;-5.30;99.90;;;;;;5009404;28;20545;-78
2024/01/10 06:34:27;;;;;;;24.95;15.98;;;-5.30;99.90;;;;;;5026305;28;20095;-78
2024/01/10 06:36:53;;;;;;;26.45;15.50;;;-5.30;99.90;;;;;;5027277;28;20049;-78
2024/01/10 06:39:19;;;;;;;26.73;16.35;;;-5.30;99.90;;;;;;5026047;28;20613;-78
2024/01/10 06:41:47;;;;;;;27.50;15.95;;;-5.30;99.90;;;;;;5026624;28;20488;-78
2024/01/10 06:44:12;;;;;;;30.20;15.77;;;-5.30;99.90;;;;;;5014451;28;20037;-77
2024/01/10 06:46:38;;;;;;;25.67;15.23;;;-5.30;99.90;;;;;;4992494;28;20424;-78
2024/01/10 06:49:03;;;;;;;27.33;15.32;;;-5.30;99.90;;;;;;5007636;28;20065;-77
2024/01/10 06:51:29;;;;;;;27.88;16.13;;;-5.20;99.90;;;;;;5027217;28;20049;-77
2024/01/10 06:54:02;;;;;;;26.05;15.93;;;-5.20;99.90;;;;;;5008204;28;20045;-78
2024/01/10 06:56:28;;;;;;;22.15;15.05;;;-5.00;99.90;;;;;;5027226;28;20042;-77
2024/01/10 06:58:54;;;;;;;27.60;16.30;;;-5.10;99.90;;;;;;5024177;28;20547;-78
2024/01/10 07:01:21;;;;;;;26.23;15.40;;;-5.10;99.90;;;;;;4991957;28;20102;-78
2024/01/10 07:03:47;;;;;;;26.80;16.25;;;-5.10;99.90;;;;;;5008835;28;20053;-78
2024/01/10 07:06:16;;;;;;;27.92;15.07;;;-5.10;99.90;;;;;;5031714;28;20045;-78
2024/01/10 07:08:42;;;;;;;25.70;14.80;;;-5.00;99.90;;;;;;4998877;28;20033;-78
2024/01/10 07:11:08;;;;;;;28.05;15.13;;;-5.10;99.90;;;;;;5029266;28;20703;-78
2024/01/10 07:13:34;;;;;;;22.30;14.07;;;-5.10;99.90;;;;;;5010530;28;20121;-78
2024/01/10 07:16:01;;;;;;;27.85;16.17;;;-5.10;99.90;;;;;;5031803;28;20164;-77
2024/01/10 07:18:28;;;;;;;23.88;15.35;;;-5.10;99.90;;;;;;4995104;28;20100;-78
2024/01/10 07:20:54;;;;;;;23.45;14.65;;;-5.10;99.90;;;;;;5012782;28;20050;-77
2024/01/10 07:23:19;;;;;;;23.58;14.90;;;-5.10;99.90;;;;;;4994609;28;20046;-78
2024/01/10 07:25:45;;;;;;;24.80;15.48;;;-5.10;99.90;;;;;;5012573;28;20050;-78
2024/01/10 07:28:10;;;;;;;23.05;14.63;;;-5.10;99.90;;;;;;4997164;28;20396;-78
2024/01/10 07:30:36;;;;;;;25.85;16.20;;;-5.10;99.90;;;;;;5032206;28;20094;-78
2024/01/10 07:33:02;;;;;;;24.70;14.98;;;-5.10;99.90;;;;;;5030648;28;20052;-78
2024/01/10 07:35:29;;;;;;;24.65;15.75;;;-5.10;99.90;;;;;;5031054;28;20455;-78
2024/01/10 07:37:54;;;;;;;22.75;14.55;;;-5.10;99.90;;;;;;5028597;28;20593;-78
2024/01/10 07:40:20;;;;;;;23.75;14.05;;;-5.20;99.90;;;;;;5007065;28;20139;-77
2024/01/10 07:42:46;;;;;;;22.98;14.32;;;-5.10;99.90;;;;;;5031030;28;20426;-77
2024/01/10 07:45:11;;;;;;;24.40;14.77;;;-5.10;99.90;;;;;;5008639;28;20132;-77
2024/01/10 07:47:38;;;;;;;26.45;15.27;;;-5.10;99.90;;;;;;5030100;28;20042;-78
2024/01/10 07:50:07;;;;;;;22.80;13.90;;;-5.10;99.90;;;;;;5013656;28;20037;-78
2024/01/10 07:52:34;;;;;;;24.77;14.68;;;-5.10;99.90;;;;;;5030853;28;20104;-78
2024/01/10 07:55:01;;;;;;;23.02;14.73;;;-5.10;99.90;;;;;;5014155;28;20107;-81
2024/01/10 07:57:27;;;;;;;25.00;14.32;;;-5.10;99.90;;;;;;5013619;28;20045;-79
2024/01/10 07:59:53;;;;;;;23.80;15.90;;;-5.10;99.90;;;;;;5031481;28;20106;-79
2024/01/10 08:02:19;;;;;;;21.83;13.43;;;-5.10;99.90;;;;;;5030479;28;20387;-79
2024/01/10 08:04:45;;;;;;;21.35;13.60;;;-5.10;99.90;;;;;;5014266;28;20049;-79
2024/01/10 08:07:10;;;;;;;21.52;14.23;;;-5.00;99.90;;;;;;5031070;28;20045;-80
2024/01/10 08:09:36;;;;;;;21.77;14.10;;;-5.00;99.90;;;;;;5030587;28;20454;-82
2024/01/10 08:12:03;;;;;;;22.92;13.63;;;-5.00;99.90;;;;;;5031280;28;20100;-79
2024/01/10 08:14:29;;;;;;;23.58;13.93;;;-5.00;99.90;;;;;;5030951;28;20053;-79
2024/01/10 08:16:57;;;;;;;22.48;14.25;;;-4.90;99.90;;;;;;5028432;28;20041;-80
2024/01/10 08:19:27;;;;;;;22.80;14.00;;;-4.90;99.90;;;;;;5031292;28;20057;-79
2024/01/10 08:21:53;;;;;;;20.40;13.80;;;-4.90;99.90;;;;;;5030812;28;20037;-79
2024/01/10 08:24:22;;;;;;;19.63;13.43;;;-4.90;99.90;;;;;;5012892;28;20446;-79
2024/01/10 08:26:51;;;;;;;21.70;13.93;;;-4.80;99.90;;;;;;5013761;28;20052;-80
2024/01/10 08:29:21;;;;;;;20.42;13.45;;;-4.80;99.90;;;;;;5013230;28;20048;-79
2024/01/10 08:31:47;;;;;;;20.48;13.63;;;-4.70;99.90;;;;;;4993421;28;20571;-79
2024/01/10 08:34:13;;;;;;;20.88;14.00;;;-4.70;99.90;;;;;;5000533;28;20076;-79
2024/01/10 08:36:39;;;;;;;21.02;12.85;;;-4.70;99.90;;;;;;5031760;28;20073;-79
2024/01/10 08:39:04;;;;;;;19.38;12.32;;;-4.70;99.90;;;;;;5030140;28;20139;-79
2024/01/10 08:41:30;;;;;;;21.60;12.77;;;-4.60;99.90;;;;;;5029063;28;20061;-79
2024/01/10 08:43:56;;;;;;;21.75;13.38;;;-4.60;99.90;;;;;;5029402;28;20045;-79
2024/01/10 08:46:22;;;;;;;20.83;13.05;;;-4.60;99.90;;;;;;5011955;28;20176;-79
2024/01/10 08:48:48;;;;;;;20.20;13.55;;;-4.50;99.90;;;;;;4994366;28;20129;-79
2024/01/10 08:51:16;;;;;;;18.00;12.13;;;-4.50;99.90;;;;;;5010178;28;20085;-79
2024/01/10 08:53:43;;;;;;;19.25;12.20;;;-4.50;99.90;;;;;;5008005;28;20057;-79
2024/01/10 08:56:09;;;;;;;21.10;13.27;;;-4.10;99.90;;;;;;5024275;28;20049;-80
2024/01/10 08:58:36;;;;;;;20.45;13.60;;;-4.40;99.90;;;;;;5029955;28;20057;-80
2024/01/10 09:01:02;;;;;;;23.52;14.18;;;-4.30;99.90;;;;;;5029446;28;20057;-79
2024/01/10 09:03:28;;;;;;;19.60;12.85;;;-4.00;99.90;;;;;;4992233;28;20377;-79
2024/01/10 09:05:56;;;;;;;24.95;14.20;;;-4.30;99.90;;;;;;5011144;28;20046;-80
2024/01/10 09:08:25;;;;;;;21.00;13.90;;;-4.30;99.90;;;;;;5004398;28;20065;-80
2024/01/10 09:10:50;;;;;;;21.05;13.38;;;-4.30;99.90;;;;;;5028969;28;20122;-79
2024/01/10 09:13:17;;;;;;;23.65;15.55;;;-4.20;99.90;;;;;;5011831;28;20053;-80
2024/01/10 09:15:43;;;;;;;23.70;14.50;;;-4.20;99.90;;;;;;4994714;28;20080;-80
2024/01/10 09:18:08;;;;;;;18.85;12.90;;;-4.20;99.90;;;;;;5024892;28;20397;-80
2024/01/10 09:20:35;;;;;;;21.98;14.38;;;-4.20;99.90;;;;;;5029649;28;20073;-79
2024/01/10 09:23:05;;;;;;;19.40;14.05;;;-4.10;99.90;;;;;;5010759;28;20056;-79
2024/01/10 09:25:30;;;;;;;23.48;14.13;;;-4.00;99.90;;;;;;5029795;28;20045;-80
2024/01/10 09:27:56;;;;;;;24.20;13.57;;;-4.00;99.90;;;;;;4994894;28;20048;-81
2024/01/10 09:30:23;;;;;;;23.08;13.20;;;-4.00;99.90;;;;;;5027614;28;20558;-79
2024/01/10 09:32:52;;;;;;;20.85;13.55;;;-4.00;99.90;;;;;;5029318;28;20060;-80
2024/01/10 09:35:18;;;;;;;23.50;14.10;;;-3.90;99.90;;;;;;5011500;28;20637;-79
2024/01/10 09:37:45;;;;;;;20.73;12.57;;;-3.80;99.90;;;;;;4994867;28;20071;-80
2024/01/10 09:40:13;;;;;;;20.30;12.68;;;-3.80;99.90;;;;;;5010565;28;20049;-80
2024/01/10 09:42:39;;;;;;;21.40;13.30;;;-3.70;99.90;;;;;;5010939;28;20052;-80
2024/01/10 09:45:06;;;;;;;21.38;12.25;;;-3.70;99.90;;;;;;5028759;28;20046;-79
2024/01/10 09:47:32;;;;;;;21.73;12.95;;;-3.70;99.90;;;;;;5028388;28;20045;-80
2024/01/10 09:49:59;;;;;;;20.30;12.65;;;-3.60;99.90;;;;;;5028322;28;20052;-79
2024/01/10 09:52:27;;;;;;;21.02;12.93;;;-3.40;99.90;;;;;;5027470;28;20061;-80
2024/01/10 09:54:57;;;;;;;20.35;13.68;;;-3.50;99.90;;;;;;5028077;28;20037;-80
2024/01/10 09:57:28;;;;;;;20.42;12.45;;;-3.50;99.90;;;;;;5010496;28;20045;-80
2024/01/10 09:59:54;;;;;;;19.17;11.70;;;-3.40;99.90;;;;;;5028451;28;20046;-80
2024/01/10 10:02:23;;;;;;;19.85;11.40;;;-3.30;99.90;;;;;;5010418;28;20057;-80
2024/01/10 10:05:07;;;;;;;19.45;11.88;;;-3.30;99.90;;;;;;5010317;28;20080;-80
2024/01/10 10:07:44;;;;;;;21.27;12.57;;;-3.30;99.90;;;;;;5010414;28;20054;-80
2024/01/10 10:10:10;;;;;;;19.63;11.45;;;-3.20;99.90;;;;;;5028672;28;20045;-79
2024/01/10 10:12:45;;;;;;;19.77;11.40;;;-3.20;99.90;;;;;;5028078;28;20041;-80
2024/01/10 10:15:17;;;;;;;20.00;11.88;;;-3.10;99.90;;;;;;5028241;28;20095;-80
2024/01/10 10:17:47;;;;;;;18.98;11.32;;;-3.10;99.90;;;;;;5028391;28;20124;-80
2024/01/10 10:20:35;;;;;;;21.10;11.43;;;-2.90;99.90;;;;;;5028338;28;20060;-81
2024/01/10 10:23:12;;;;;;;21.08;12.45;;;-2.90;99.90;;;;;;5008902;28;20068;-79
2024/01/10 10:25:43;;;;;;;18.88;10.70;;;-2.80;99.90;;;;;;5009181;28;20041;-82
2024/01/10 10:28:09;;;;;;;18.37;11.20;;;-2.80;99.90;;;;;;5010290;28;20055;-81
2024/01/10 10:30:35;;;;;;;17.30;11.23;;;-2.70;99.90;;;;;;5027912;28;20054;-81
2024/01/10 10:33:02;;;;;;;19.77;11.02;;;-2.60;99.90;;;;;;5026728;28;20084;-82
2024/01/10 10:35:27;;;;;;;19.95;11.07;;;-2.60;99.90;;;;;;5009358;28;20042;-83
2024/01/10 10:37:54;;;;;;;20.05;11.73;;;-2.50;99.90;;;;;;4993511;28;20168;-79
2024/01/10 10:40:20;;;;;;;18.27;10.68;;;-2.50;99.90;;;;;;5026914;28;20053;-82
2024/01/10 10:42:48;;;;;;;15.38;9.65;;;-2.40;99.90;;;;;;5026739;28;20041;-81
2024/01/10 10:45:18;;;;;;;18.02;11.48;;;-2.40;99.90;;;;;;5027536;28;20049;-81
2024/01/10 10:47:49;;;;;;;19.02;10.82;;;-2.30;99.90;;;;;;5008772;28;20081;-81
2024/01/10 10:50:25;;;;;;;18.00;10.23;;;-2.20;99.90;;;;;;4993592;28;20129;-81
2024/01/10 10:52:51;;;;;;;19.83;10.32;;;-2.20;99.90;;;;;;5024858;28;20049;-81
2024/01/10 10:55:18;;;;;;;20.63;10.75;;;-2.20;99.90;;;;;;5027197;28;20072;-81
2024/01/10 10:57:48;;;;;;;17.13;9.70;;;-2.10;99.90;;;;;;5008792;28;20046;-82
2024/01/10 11:00:15;;;;;;;16.05;9.93;;;-2.10;99.90;;;;;;5027190;28;20071;-83
2024/01/10 11:02:41;;;;;;;17.02;9.45;;;-2.10;99.90;;;;;;5020203;28;20058;-84
2024/01/10 11:05:09;;;;;;;17.98;9.90;;;-2.00;99.90;;;;;;4987642;28;20132;-82
2024/01/10 11:07:40;;;;;;;16.95;9.95;;;-2.00;99.90;;;;;;5026438;28;20049;-83
2024/01/10 11:10:10;;;;;;;14.98;9.02;;;-1.90;99.90;;;;;;5008448;28;20479;-82
2024/01/10 11:13:10;;;;;;;16.52;9.52;;;-1.90;99.90;;;;;;5009047;28;20041;-82
2024/01/10 11:16:03;;;;;;;16.00;9.60;;;-1.80;99.90;;;;;;5020840;28;20081;-83
2024/01/10 11:18:53;;;;;;;15.73;8.68;;;-1.80;99.90;;;;;;5011538;28;20056;-83
2024/01/10 11:21:27;;;;;;;15.18;8.63;;;-1.70;99.90;;;;;;5027208;28;20080;-83
2024/01/10 11:23:56;;;;;;;16.83;9.27;;;-1.70;99.90;;;;;;5002249;28;20491;-83
2024/01/10 11:26:22;;;;;;;16.90;9.95;;;-1.60;99.90;;;;;;5027492;28;20454;-80
2024/01/10 11:28:48;;;;;;;15.10;8.88;;;-1.50;99.90;;;;;;5024289;28;20041;-83
2024/01/10 11:31:15;;;;;;;13.57;8.82;;;-1.50;99.90;;;;;;5034324;28;20112;-81
2024/01/10 11:33:44;;;;;;;15.57;8.50;;;-1.40;99.90;;;;;;5025335;28;20132;-81
2024/01/10 11:36:14;;;;;;;13.45;8.50;;;-1.40;99.90;;;;;;5009561;28;20053;-82
2024/01/10 11:39:02;;;;;;;12.82;8.15;;;-1.30;99.90;;;;;;5028714;28;20124;-82
2024/01/10 11:41:36;;;;;;;13.70;8.13;;;-1.20;99.90;;;;;;5031282;28;20496;-82
2024/01/10 11:44:17;;;;;;;14.63;7.85;;;-1.20;99.90;;;;;;5023801;28;20100;-81
2024/01/10 11:46:46;;;;;;;16.75;9.25;;;-1.10;99.90;;;;;;5014597;28;20138;-81
2024/01/10 11:49:14;;;;;;;15.35;8.63;;;-1.10;99.90;;;;;;5010029;28;20060;-82
2024/01/10 11:51:43;;;;;;;13.73;8.10;;;-1.10;99.90;;;;;;5008467;28;20554;-81
2024/01/10 11:54:08;;;;;;;12.77;8.00;;;-1.00;99.90;;;;;;5011939;28;20076;-81
2024/01/10 11:56:41;;;;;;;16.67;8.10;;;-1.00;99.90;;;;;;5013412;28;20136;-81
2024/01/10 11:59:11;;;;;;;17.08;8.70;;;-0.90;99.90;;;;;;5012247;28;20049;-81
2024/01/10 12:01:40;;;;;;;14.13;8.25;;;-0.90;99.90;;;;;;5029590;28;20418;-81
2024/01/10 12:04:09;;;;;;;23.98;7.88;;;-0.90;99.90;;;;;;5024970;28;20065;-80
2024/01/10 12:06:36;;;;;;;16.27;8.77;;;-0.90;99.90;;;;;;5030525;28;20058;-82
2024/01/10 12:09:04;;;;;;;17.15;8.60;;;-0.80;99.90;;;;;;5012792;28;20362;-82
2024/01/10 12:11:30;;;;;;;14.40;7.82;;;-0.80;99.90;;;;;;5013497;28;20095;-84
2024/01/10 12:13:56;;;;;;;15.43;8.32;;;-0.80;99.90;;;;;;5011222;28;20434;-84
2024/01/10 12:16:24;;;;;;;13.15;7.93;;;-0.80;99.90;;;;;;4996184;28;20068;-82
2024/01/10 12:18:52;;;;;;;11.90;7.28;;;-0.80;99.90;;;;;;5011849;28;20423;-82
2024/01/10 12:21:18;;;;;;;13.85;8.07;;;-0.70;99.90;;;;;;4997541;28;20042;-82
2024/01/10 12:23:44;;;;;;;12.75;7.65;;;-0.70;99.90;;;;;;5048016;28;20130;-82
2024/01/10 12:26:13;;;;;;;15.80;8.52;;;-0.70;99.90;;;;;;5010097;28;20117;-82